Tuesday, September 2, 2014, 5:15 PM EDT
Back to Local

KMPO, Mt Pocono Pocono Mountains

Location: Pocono Summit, PA, United States Lat: 41.133
Local Time: 5:15 PM EDT (21:15 GMT) Lon: -75.383
Time Zone: US/Eastern Elev: 1915 ft

Show me the last for .
Show Decoded

2014-09-02 17:07 METAR KMPO 022107Z AUTO 23008KT 200V260 10SM FEW002 28/18 A2991 RMK AO2
                 T02780178 TSNO =
2014-09-02 16:53 METAR KMPO 022053Z AUTO 22009KT 10SM CLR 28/17 A2992 RMK AO2 SLP115 T02830172
                 58016 TSNO =
2014-09-02 15:53 METAR KMPO 021953Z AUTO 26011KT 10SM CLR 28/17 A2993 RMK AO2 SLP120 T02830167
                 TSNO =
2014-09-02 14:53 METAR KMPO 021853Z AUTO 25010KT 10SM FEW041 FEW050 28/17 A2995 RMK AO2 SLP127
                 T02780172 TSNO =
2014-09-02 13:53 METAR KMPO 021753Z AUTO 23012G17KT 10SM CLR 28/17 A2997 RMK AO2 SLP132 T02780172
                 10283 20217 58015 TSNO =
2014-09-02 12:53 METAR KMPO 021653Z AUTO 27007KT 240V300 10SM BKN032 BKN041 27/19 A2999 RMK AO2
                 SLP141 T02720189 TSNO =
2014-09-02 12:06 METAR KMPO 021606Z AUTO 27010G14KT 10SM SCT027 SCT037 BKN045 27/19 A3000 RMK AO2
                 T02720189 TSNO =
2014-09-02 11:53 METAR KMPO 021553Z AUTO 29009KT 10SM BKN026 BKN037 27/19 A3001 RMK AO2 SLP146
                 T02720189 TSNO =
2014-09-02 10:53 METAR KMPO 021453Z AUTO 29007KT 10SM CLR 26/19 A3001 RMK AO2 SLP148 T02610189
                 50002 TSNO =
2014-09-02 09:53 METAR KMPO 021353Z AUTO 27011G16KT 10SM CLR 24/19 A3001 RMK AO2 SLP150 T02440194
                 TSNO =
2014-09-02 08:53 METAR KMPO 021253Z AUTO 29009KT 10SM CLR 23/20 A3001 RMK AO2 SLP149 T02280200
                 TSNO =
2014-09-02 07:53 METAR KMPO 021153Z AUTO 28009KT 10SM SCT015 22/19 A3001 RMK AO2 SLP148 T02170194
                 10217 20194 53011 TSNO =
2014-09-02 06:53 METAR KMPO 021053Z AUTO 25006KT 9SM CLR 21/19 A2999 RMK AO2 SLP141 T02060189
                 TSNO =
2014-09-02 05:53 METAR KMPO 020953Z AUTO 27006KT 10SM CLR 21/19 A2997 RMK AO2 SLP135 T02060194
                 TSNO =
2014-09-02 04:53 METAR KMPO 020853Z AUTO 26007KT 7SM CLR 21/19 A2997 RMK AO2 SLP134 T02110194
                 56010 TSNO =
2014-09-02 03:53 METAR KMPO 020753Z AUTO 24006KT 8SM CLR 21/19 A2998 RMK AO2 SLP139 T02110194
                 TSNO =
2014-09-02 01:53 METAR KMPO 020553Z AUTO 29003KT 8SM CLR 19/18 A3000 RMK AO2 SLP147 T01940183
                 10233 20189 57010 TSNO =
2014-09-02 01:14 METAR KMPO 020514Z AUTO 00000KT 5SM BR FEW047 SCT060 19/18 A3001 RMK AO2
                 T01890178 TSNO =
2014-09-02 01:05 METAR KMPO 020505Z AUTO 00000KT 2 1/2SM BR SCT047 SCT055 19/18 A3001 RMK AO2
                 T01940183 TSNO =
2014-09-02 00:53 METAR KMPO 020453Z AUTO 00000KT 6SM BR FEW047 SCT110 19/18 A3002 RMK AO2 SLP152
                 T01890183 402670178 TSNO =
2014-09-01 23:53 METAR KMPO 020353Z AUTO 27004KT 8SM CLR 21/19 A3002 RMK AO2 SLP154 T02060189
                 TSNO =
2014-09-01 22:53 METAR KMPO 020253Z AUTO 27005KT 10SM FEW110 21/19 A3004 RMK AO2 SLP158 T02110194
                 50006 TSNO =
2014-09-01 21:53 METAR KMPO 020153Z AUTO 27004KT 10SM FEW055 22/19 A3004 RMK AO2 SLP160 T02170194
                 TSNO =
2014-09-01 20:53 METAR KMPO 020053Z AUTO 26004KT 10SM FEW036 SCT050 23/19 A3002 RMK AO2 SLP153
                 T02280194 TSNO =
2014-09-01 19:53 METAR KMPO 012353Z AUTO 21005KT 10SM SCT030 SCT120 23/20 A3002 RMK AO2 SLP152
                 T02330200 10267 20233 53002 TSNO =
2014-09-01 19:49 METAR KMPO 012349Z AUTO 22005KT 10SM SCT030 BKN120 23/20 A3002 RMK AO2 TSNO =
2014-09-01 19:27 METAR KMPO 012327Z AUTO 22005KT 10SM BKN029 BKN036 24/20 A3001 RMK AO2 T02440200
                 TSNO =
2014-09-01 18:28 METAR KMPO 012228Z AUTO 29003KT 10SM SCT024 SCT080 26/20 A3001 RMK AO2 T02560200
                 TSNO =
2014-09-01 17:53 METAR KMPO 012153Z AUTO 23006KT 10SM BKN025 BKN035 BKN060 26/19 A3001 RMK AO2
                 SLP150 T02560194 TSNO =

Support USWX by starting your Amazon purchase here.